»·PEaware :: N20HJ KSAC-KTRK

N20HJ :: KSAC-KTRK

FLIGHT INFORMATION

Flight Status: Arrived
Operator: Privately registered:
United States
More flights under this callsign
Pilot: Hogarth D. (20677)
Aircraft: Unknown
(DA62)
More flights by this aircraft type
Origin: KSAC Sacramento Executive
United States
Destination: KTRK Truckee-Tahoe
United States
More flights between these airports :: More routes between these airports
Route: +FOLLY V6 SWR
File this flight plan on PilotEdge
Remarks:
Altitude:
(Current/Filed)
13,000ft
Speed:
(Current/Filed)
175kts
Departed: 06-Jan-19 01:05 PM
Arrived: 06-Jan-19 01:55 PM
Distance/Time
Traveled:
80nm/0:50
Distance/Time
To Go:
Arrived

Flight Plot

Page will automatically refresh every two minutes.

Flight plan parsing failed; only flown route is shown


Map Options




Map Legend


Flown Route
Filed Route
Departure Airport
Arrival Airport
Navaid (VOR, NDB)
Fix

Horizontal Profiles

Position Reports

Time Latitude Longitude Heading Altitude Ground
Speed
06-Jan-19 12:45 38.517901 -121.496429 225 23ft 0kts
06-Jan-19 12:46 38.517901 -121.496429 225 23ft 0kts
06-Jan-19 12:47 38.517901 -121.496429 225 23ft 0kts
06-Jan-19 12:48 38.517901 -121.496429 225 23ft 0kts
06-Jan-19 12:49 38.517901 -121.496429 225 23ft 0kts
06-Jan-19 12:50 38.517901 -121.496429 225 23ft 0kts
06-Jan-19 12:51 38.517901 -121.496429 225 23ft 0kts
06-Jan-19 12:52 38.517901 -121.496429 225 23ft 0kts
06-Jan-19 12:53 38.517901 -121.496429 225 23ft 0kts
06-Jan-19 12:54 38.517901 -121.496429 225 23ft 0kts
06-Jan-19 12:55 38.517901 -121.496429 225 23ft 0kts
06-Jan-19 12:56 38.517901 -121.496429 225 23ft 0kts
06-Jan-19 12:57 38.517901 -121.496429 225 23ft 0kts
06-Jan-19 12:58 38.517901 -121.496429 225 23ft 0kts
06-Jan-19 12:59 38.517901 -121.496429 225 23ft 0kts
06-Jan-19 13:00 38.517901 -121.496429 225 23ft 0kts
06-Jan-19 13:01 38.517824 -121.496471 183 23ft 5kts
06-Jan-19 13:02 38.517736 -121.495694 54 23ft 0kts
06-Jan-19 13:02 38.517736 -121.495694 54 23ft 0kts
06-Jan-19 13:03 38.517774 -121.495633 50 23ft 4kts
06-Jan-19 13:04 38.510726 -121.483983 132 250ft 80kts
06-Jan-19 13:05 38.494143 -121.457801 131 1241ft 101kts
06-Jan-19 13:07 38.474112 -121.427059 132 2595ft 96kts
06-Jan-19 13:08 38.457827 -121.400477 133 3716ft 96kts
06-Jan-19 13:08 38.444548 -121.377545 132 4626ft 97kts
06-Jan-19 13:09 38.434250 -121.358380 133 5303ft 101kts
06-Jan-19 13:10 38.419176 -121.327999 130 6322ft 104kts
06-Jan-19 13:11 38.443655 -121.298956 23 7244ft 150kts
06-Jan-19 13:12 38.483514 -121.279572 22 8187ft 155kts
06-Jan-19 13:13 38.523968 -121.257570 22 9035ft 166kts
06-Jan-19 13:14 38.565479 -121.231524 23 9985ft 168kts
06-Jan-19 13:15 38.606689 -121.202838 22 10928ft 170kts
06-Jan-19 13:16 38.647531 -121.171890 23 11860ft 172kts
06-Jan-19 13:17 38.688570 -121.140269 23 12748ft 175kts
06-Jan-19 13:18 38.726997 -121.094768 58 12977ft 214kts
06-Jan-19 13:19 38.762416 -121.029951 59 12958ft 226kts
06-Jan-19 13:20 38.798671 -120.964631 61 12949ft 224kts
06-Jan-19 13:21 38.834411 -120.900102 61 12947ft 221kts
06-Jan-19 13:22 38.869995 -120.835809 61 12949ft 221kts
06-Jan-19 13:23 38.905275 -120.771937 61 12944ft 222kts
06-Jan-19 13:24 38.941046 -120.707056 60 12932ft 225kts
06-Jan-19 13:25 38.977214 -120.641310 60 12919ft 228kts
06-Jan-19 13:26 39.028781 -120.585211 39 12180ft 257kts
06-Jan-19 13:27 39.085411 -120.527023 40 11248ft 261kts
06-Jan-19 13:28 39.139817 -120.470965 41 10583ft 244kts
06-Jan-19 13:29 39.179295 -120.430170 41 10600ft 228kts
06-Jan-19 13:30 39.228166 -120.379609 41 10632ft 224kts
06-Jan-19 13:31 39.276386 -120.329649 41 10651ft 224kts
06-Jan-19 13:32 39.324977 -120.279203 41 10675ft 224kts
06-Jan-19 13:33 39.373400 -120.228860 40 10696ft 225kts
06-Jan-19 13:34 39.422382 -120.177819 39 10683ft 226kts
06-Jan-19 13:35 39.463423 -120.141823 29 10659ft 227kts
06-Jan-19 13:36 39.517748 -120.099876 27 10607ft 228kts
06-Jan-19 13:37 39.571973 -120.057860 26 10559ft 227kts
06-Jan-19 13:38 39.624982 -120.020773 6 10529ft 200kts
06-Jan-19 13:39 39.673276 -120.003870 4 10523ft 171kts
06-Jan-19 13:40 39.707284 -120.011928 250 10534ft 107kts
06-Jan-19 13:41 39.678217 -119.999008 137 10532ft 164kts
06-Jan-19 13:42 39.646158 -119.997909 213 10525ft 117kts
06-Jan-19 13:43 39.620149 -120.019267 218 10536ft 96kts
06-Jan-19 13:44 39.594081 -120.030626 206 10077ft 98kts
06-Jan-19 13:45 39.566809 -120.040802 207 9335ft 117kts
06-Jan-19 13:46 39.538839 -120.050816 207 9358ft 100kts
06-Jan-19 13:47 39.511940 -120.060521 207 9374ft 99kts
06-Jan-19 13:48 39.485460 -120.070030 206 9398ft 98kts
06-Jan-19 13:49 39.456790 -120.080344 203 8665ft 117kts
06-Jan-19 13:50 39.425849 -120.091374 202 8047ft 106kts
06-Jan-19 13:51 39.397109 -120.101702 201 7170ft 110kts
06-Jan-19 13:52 39.368395 -120.111972 199 6234ft 105kts
06-Jan-19 13:53 39.342413 -120.119877 201 6292ft 99kts
06-Jan-19 13:54 39.320595 -120.135398 207 5884ft 39kts

Navigation Log

Ident Type
Flight plan parsing failed, navigation log unavailable